Time;durP1;ratioP1;P1;durP2;ratioP2;P2;SDS_P1;SDS_P2;PMS_P1;PMS_P2;Temp;Humidity;BMP_temperature;BMP_pressure;BME280_temperature;BME280_humidity;BME280_pressure;Samples;Min_cycle;Max_cycle;Signal;HPM_P1;HPM_P2
2023/04/17 00:04:40;;;;;;;23.57;21.33;;;11.30;99.90;;;;;;10475615;28;20221;-79
2023/04/17 00:09:44;;;;;;;24.33;22.10;;;11.30;99.90;;;;;;10443316;28;20209;-79
2023/04/17 00:14:46;;;;;;;25.17;22.77;;;11.20;99.90;;;;;;10450801;28;20212;-79
2023/04/17 00:19:49;;;;;;;25.67;23.17;;;11.20;99.90;;;;;;10458825;28;20197;-78
2023/04/17 00:24:52;;;;;;;25.40;22.90;;;11.20;99.90;;;;;;10454189;28;20197;-78
2023/04/17 00:29:54;;;;;;;25.67;23.30;;;11.20;99.90;;;;;;10454342;28;20280;-78
2023/04/17 00:34:56;;;;;;;25.13;22.73;;;11.20;99.90;;;;;;10436346;28;20252;-78
2023/04/17 00:39:59;;;;;;;23.70;21.60;;;11.20;99.90;;;;;;10454270;28;20206;-78
2023/04/17 00:45:03;;;;;;;24.67;22.40;;;11.20;99.90;;;;;;10437276;28;20201;-79
2023/04/17 00:50:06;;;;;;;25.50;23.07;;;11.20;99.90;;;;;;10454053;28;20245;-78
2023/04/17 00:55:10;;;;;;;26.27;23.73;;;11.20;99.90;;;;;;10456362;28;20507;-79
2023/04/17 01:00:14;;;;;;;24.17;21.97;;;11.20;99.90;;;;;;10424880;28;20221;-78
2023/04/17 01:05:16;;;;;;;24.07;21.87;;;11.20;99.90;;;;;;10440378;28;20225;-80
2023/04/17 01:10:19;;;;;;;23.97;21.87;;;11.20;99.90;;;;;;10463952;28;20622;-80
2023/04/17 01:15:22;;;;;;;23.40;21.30;;;11.20;99.90;;;;;;10431281;28;20197;-80
2023/04/17 01:20:29;;;;;;;24.63;22.43;;;11.20;99.90;;;;;;10443369;28;20292;-80
2023/04/17 01:25:33;;;;;;;24.47;22.17;;;11.20;99.90;;;;;;10445986;28;20272;-80
2023/04/17 01:30:35;;;;;;;23.57;21.43;;;11.20;99.90;;;;;;10464644;28;20380;-79
2023/04/17 01:35:43;;;;;;;24.77;22.50;;;11.20;99.90;;;;;;10429892;28;20193;-80
2023/04/17 01:40:46;;;;;;;25.73;23.33;;;11.20;99.90;;;;;;10440993;28;20678;-80
2023/04/17 01:45:48;;;;;;;25.10;22.80;;;11.20;99.90;;;;;;10459915;28;20221;-80
2023/04/17 01:50:50;;;;;;;24.03;21.73;;;11.20;99.90;;;;;;10467523;28;20226;-80
2023/04/17 01:55:54;;;;;;;25.03;22.73;;;11.20;99.90;;;;;;10448391;28;20212;-79
2023/04/17 02:00:57;;;;;;;25.37;22.93;;;11.20;99.90;;;;;;10432176;28;20225;-79
2023/04/17 02:05:59;;;;;;;26.03;23.57;;;11.20;99.90;;;;;;10450501;28;20274;-79
2023/04/17 02:11:02;;;;;;;25.00;22.60;;;11.20;99.90;;;;;;10467443;28;20221;-79
2023/04/17 02:16:06;;;;;;;25.50;23.07;;;11.20;99.90;;;;;;10460623;28;20202;-79
2023/04/17 02:21:09;;;;;;;26.17;23.57;;;11.20;99.90;;;;;;10448846;28;20230;-79
2023/04/17 02:26:13;;;;;;;27.10;24.47;;;11.20;99.90;;;;;;10464599;28;20194;-79
2023/04/17 02:31:15;;;;;;;26.00;23.60;;;11.20;99.90;;;;;;10447526;28;20252;-80
2023/04/17 02:36:17;;;;;;;26.73;24.33;;;11.20;99.90;;;;;;10461236;28;20259;-79
2023/04/17 02:41:22;;;;;;;25.20;22.90;;;11.10;99.90;;;;;;10443071;28;20206;-79
2023/04/17 02:46:24;;;;;;;26.10;23.60;;;11.10;99.90;;;;;;10443149;28;20201;-78
2023/04/17 02:51:26;;;;;;;27.53;24.90;;;11.10;99.90;;;;;;10425624;28;20252;-79
2023/04/17 02:56:30;;;;;;;26.30;23.67;;;11.10;99.90;;;;;;10417801;28;20199;-79
2023/04/17 03:01:32;;;;;;;28.03;25.37;;;11.10;99.90;;;;;;10456814;28;20217;-79
2023/04/17 03:06:35;;;;;;;27.63;24.93;;;11.10;99.90;;;;;;10441209;28;20664;-78
2023/04/17 03:11:40;;;;;;;25.37;22.93;;;11.10;99.90;;;;;;10443442;22;20238;-77
2023/04/17 03:16:42;;;;;;;26.77;24.37;;;11.10;99.90;;;;;;10400359;28;20207;-80
2023/04/17 03:21:46;;;;;;;27.13;24.40;;;11.10;99.90;;;;;;10398684;28;20222;-77
2023/04/17 03:26:49;;;;;;;26.30;23.80;;;11.10;99.90;;;;;;10417452;28;20244;-77
2023/04/17 03:31:55;;;;;;;27.97;25.10;;;11.10;99.90;;;;;;10385169;28;20229;-77
2023/04/17 03:37:00;;;;;;;26.10;23.60;;;11.10;99.90;;;;;;10399277;28;20233;-77
2023/04/17 03:42:07;;;;;;;24.77;22.47;;;11.10;99.90;;;;;;10398744;28;20303;-77
2023/04/17 03:47:10;;;;;;;27.80;24.97;;;11.00;99.90;;;;;;10398995;28;20213;-77
2023/04/17 03:52:12;;;;;;;27.03;24.43;;;11.00;99.90;;;;;;10398103;28;20277;-77
2023/04/17 03:57:16;;;;;;;26.70;24.37;;;11.00;99.90;;;;;;10397274;28;20718;-77
2023/04/17 04:02:19;;;;;;;26.43;23.93;;;11.00;99.90;;;;;;10415982;28;20221;-77
2023/04/17 04:07:25;;;;;;;28.07;25.43;;;11.00;99.90;;;;;;10414062;28;20584;-78
2023/04/17 04:12:32;;;;;;;26.00;23.50;;;11.00;99.90;;;;;;10408875;28;20621;-77
2023/04/17 04:17:34;;;;;;;26.80;24.30;;;11.00;99.90;;;;;;10379653;28;20615;-77
2023/04/17 04:22:37;;;;;;;27.10;24.60;;;11.00;99.90;;;;;;10381219;28;20250;-77
2023/04/17 04:27:48;;;;;;;27.27;24.40;;;11.00;99.90;;;;;;10399867;28;20242;-77
2023/04/17 04:32:50;;;;;;;24.37;22.00;;;11.00;99.90;;;;;;10399336;28;20218;-77
2023/04/17 04:38:01;;;;;;;25.73;23.27;;;11.00;99.90;;;;;;10381871;28;20669;-78
2023/04/17 04:43:07;;;;;;;24.37;22.00;;;11.00;99.90;;;;;;10401134;28;20218;-78
2023/04/17 04:48:15;;;;;;;26.80;24.20;;;11.00;99.90;;;;;;10403105;28;20202;-78
2023/04/17 04:53:18;;;;;;;27.20;24.50;;;11.00;99.90;;;;;;10417174;28;20276;-79
2023/04/17 04:58:31;;;;;;;28.97;26.27;;;11.00;99.90;;;;;;10418385;28;20206;-78
2023/04/17 05:03:39;;;;;;;26.63;24.03;;;11.10;99.90;;;;;;10350212;28;20221;-78
2023/04/17 05:08:44;;;;;;;26.07;23.37;;;11.00;99.90;;;;;;10367864;28;20267;-79
2023/04/17 05:13:51;;;;;;;25.90;23.40;;;11.00;99.90;;;;;;10385449;28;20219;-79
2023/04/17 05:19:02;;;;;;;25.87;23.57;;;11.00;99.90;;;;;;10354691;28;20198;-78
2023/04/17 05:24:36;;;;;;;24.93;22.53;;;11.00;99.90;;;;;;10397308;28;20741;-80
2023/04/17 05:29:39;;;;;;;25.77;23.30;;;11.00;99.90;;;;;;10395054;28;20258;-79
2023/04/17 05:34:42;;;;;;;25.80;23.10;;;11.10;99.90;;;;;;10385067;28;20221;-79
2023/04/17 05:39:45;;;;;;;25.03;22.73;;;11.10;99.90;;;;;;10390795;28;20198;-81
2023/04/17 05:44:49;;;;;;;23.07;20.60;;;11.10;99.90;;;;;;10392725;28;20234;-79
2023/04/17 05:49:56;;;;;;;25.93;23.40;;;11.10;99.90;;;;;;10404602;28;20195;-80
2023/04/17 05:54:59;;;;;;;26.43;23.70;;;11.10;99.90;;;;;;10385921;28;20264;-81
2023/04/17 06:00:09;;;;;;;26.37;23.87;;;11.10;99.90;;;;;;10386205;28;20205;-79
2023/04/17 06:05:17;;;;;;;24.90;22.60;;;11.00;99.90;;;;;;10408044;28;20199;-79
2023/04/17 06:10:20;;;;;;;26.37;23.63;;;11.00;99.90;;;;;;10403933;28;20195;-79
2023/04/17 06:15:25;;;;;;;24.23;21.90;;;11.00;99.90;;;;;;10387749;28;20198;-80
2023/04/17 06:20:28;;;;;;;24.30;21.70;;;11.00;99.90;;;;;;10403739;28;20211;-80
2023/04/17 06:25:30;;;;;;;24.70;22.40;;;10.90;99.90;;;;;;10405317;28;20731;-80
2023/04/17 06:30:33;;;;;;;23.83;21.60;;;10.90;99.90;;;;;;10405620;28;20214;-80
2023/04/17 06:35:39;;;;;;;23.70;21.47;;;10.90;99.90;;;;;;10391169;28;20737;-80
2023/04/17 06:41:05;;;;;;;24.93;22.30;;;10.90;99.90;;;;;;10412840;28;20260;-80
2023/04/17 06:46:08;;;;;;;26.00;23.50;;;10.90;99.90;;;;;;10402939;28;20625;-79
2023/04/17 06:51:10;;;;;;;25.00;22.50;;;11.00;99.90;;;;;;10393783;28;20678;-79
2023/04/17 06:56:12;;;;;;;23.57;21.37;;;11.00;99.90;;;;;;10392424;28;20702;-79
2023/04/17 07:01:16;;;;;;;23.20;21.00;;;11.00;99.90;;;;;;10407662;28;20253;-79
2023/04/17 07:06:18;;;;;;;23.70;21.40;;;11.00;99.90;;;;;;10405642;28;20278;-80
2023/04/17 07:11:20;;;;;;;24.33;22.00;;;11.00;99.90;;;;;;10389123;28;20219;-79
2023/04/17 07:16:24;;;;;;;23.60;21.40;;;11.00;99.90;;;;;;10403796;28;20290;-79
2023/04/17 07:21:26;;;;;;;23.00;20.80;;;11.00;99.90;;;;;;10423285;28;20234;-79
2023/04/17 07:26:28;;;;;;;23.37;21.07;;;11.00;99.90;;;;;;10404987;28;20198;-80
2023/04/17 07:31:33;;;;;;;21.43;19.47;;;11.10;99.90;;;;;;10403282;28;20239;-81
2023/04/17 07:36:36;;;;;;;22.37;20.13;;;11.10;99.90;;;;;;10421991;28;20600;-78
2023/04/17 07:41:38;;;;;;;20.77;18.80;;;11.10;99.90;;;;;;10423545;28;20238;-81
2023/04/17 07:46:41;;;;;;;22.10;19.83;;;11.00;99.90;;;;;;10421935;28;20225;-79
2023/04/17 07:51:44;;;;;;;22.83;20.60;;;11.00;99.90;;;;;;10387397;28;20214;-79
2023/04/17 07:56:48;;;;;;;20.50;18.60;;;11.00;99.90;;;;;;10402612;28;20226;-79
2023/04/17 08:01:52;;;;;;;22.87;20.67;;;11.00;99.90;;;;;;10403619;28;20238;-79
2023/04/17 08:06:54;;;;;;;21.53;19.50;;;11.00;99.90;;;;;;10402377;28;20202;-79
2023/04/17 08:11:56;;;;;;;19.83;17.90;;;11.00;99.90;;;;;;10403460;28;20298;-79
2023/04/17 08:17:00;;;;;;;20.63;18.77;;;11.00;99.90;;;;;;10403751;28;20201;-80
2023/04/17 08:22:04;;;;;;;18.10;16.57;;;11.10;99.90;;;;;;10404786;28;20225;-79
2023/04/17 08:27:06;;;;;;;22.77;18.53;;;11.10;99.90;;;;;;10403859;28;20195;-79
2023/04/17 08:32:10;;;;;;;19.43;17.60;;;11.20;99.90;;;;;;10402974;28;20253;-78
2023/04/17 08:37:12;;;;;;;19.30;17.50;;;11.20;99.90;;;;;;10421529;28;20293;-78
2023/04/17 08:42:14;;;;;;;19.77;17.97;;;11.30;99.90;;;;;;10420890;28;20625;-79
2023/04/17 08:47:19;;;;;;;19.00;17.10;;;11.30;99.90;;;;;;10382639;28;20250;-79
2023/04/17 08:52:21;;;;;;;18.30;16.50;;;11.30;99.90;;;;;;10404362;28;20245;-78
2023/04/17 08:57:23;;;;;;;18.77;17.20;;;11.40;99.90;;;;;;10386230;28;20630;-79
2023/04/17 09:02:26;;;;;;;19.30;17.47;;;11.50;99.90;;;;;;10420235;28;20274;-79
2023/04/17 09:07:29;;;;;;;14.63;13.30;;;11.60;99.90;;;;;;10400305;28;20281;-79
2023/04/17 09:12:31;;;;;;;15.00;13.60;;;11.70;99.90;;;;;;10419375;28;20225;-79
2023/04/17 09:17:36;;;;;;;16.50;15.00;;;11.70;99.90;;;;;;10419499;28;20732;-79
2023/04/17 09:22:40;;;;;;;14.80;13.40;;;11.70;99.90;;;;;;10402260;28;20698;-79
2023/04/17 09:27:42;;;;;;;14.37;13.27;;;11.70;99.90;;;;;;10401940;28;20194;-79
2023/04/17 09:32:46;;;;;;;13.40;12.20;;;11.70;99.90;;;;;;10398621;28;20258;-80
2023/04/17 09:37:50;;;;;;;14.63;13.33;;;11.80;99.90;;;;;;10362039;28;20282;-79
2023/04/17 09:42:57;;;;;;;12.47;11.47;;;11.90;99.90;;;;;;10415347;28;20742;-79
2023/04/17 09:48:02;;;;;;;14.23;13.13;;;12.00;99.90;;;;;;10399979;28;20244;-79
2023/04/17 09:53:05;;;;;;;12.90;11.80;;;12.10;99.90;;;;;;10419530;28;20218;-78
2023/04/17 09:58:07;;;;;;;12.70;11.70;;;12.20;99.90;;;;;;10401703;28;20226;-79
2023/04/17 10:03:15;;;;;;;12.73;11.70;;;12.20;99.90;;;;;;10401353;28;20214;-79
2023/04/17 10:08:19;;;;;;;12.43;11.40;;;12.20;99.90;;;;;;10384509;28;20195;-80
2023/04/17 10:13:26;;;;;;;11.77;10.70;;;12.20;99.90;;;;;;10426911;28;20637;-78
2023/04/17 10:18:29;;;;;;;13.07;11.77;;;12.20;99.90;;;;;;10392768;28;20207;-80
2023/04/17 10:23:33;;;;;;;11.07;10.13;;;12.30;99.90;;;;;;10427822;28;20218;-79
2023/04/17 10:28:47;;;;;;;11.63;10.73;;;12.40;99.90;;;;;;10409350;28;20637;-79
2023/04/17 10:33:52;;;;;;;10.20;9.40;;;12.40;99.90;;;;;;10409350;28;20227;-79
2023/04/17 10:39:12;;;;;;;10.87;9.77;;;12.50;99.90;;;;;;10393174;28;20702;-78
2023/04/17 10:44:14;;;;;;;9.83;9.03;;;12.60;99.90;;;;;;10352574;28;20211;-80
2023/04/17 10:49:17;;;;;;;11.13;10.17;;;12.60;99.90;;;;;;10387040;28;20544;-80
2023/04/17 10:54:20;;;;;;;9.80;9.00;;;12.80;99.90;;;;;;10423449;28;20224;-80
2023/04/17 10:59:28;;;;;;;9.00;8.23;;;13.00;99.90;;;;;;10424911;28;20209;-80
2023/04/17 11:04:33;;;;;;;9.63;8.83;;;13.30;99.90;;;;;;10406887;28;20206;-80
2023/04/17 11:09:35;;;;;;;8.23;7.60;;;13.60;99.90;;;;;;10407459;28;20667;-81
2023/04/17 11:14:41;;;;;;;7.33;6.80;;;13.80;99.90;;;;;;10390575;28;20234;-81
2023/04/17 11:19:45;;;;;;;6.40;5.90;;;14.00;99.90;;;;;;10425270;28;20197;-80
2023/04/17 11:24:47;;;;;;;7.87;6.23;;;14.20;99.90;;;;;;10414145;28;20219;-80
2023/04/17 11:29:49;;;;;;;6.20;5.63;;;14.40;99.90;;;;;;10425686;28;20282;-80
2023/04/17 11:34:55;;;;;;;7.93;7.33;;;14.50;99.90;;;;;;10388824;28;20214;-80
2023/04/17 11:40:06;;;;;;;6.30;5.90;;;14.60;99.90;;;;;;10405077;28;20709;-80
2023/04/17 11:45:09;;;;;;;7.30;6.80;;;14.60;99.90;;;;;;10404713;28;20201;-80
2023/04/17 11:50:15;;;;;;;6.70;6.30;;;14.60;99.90;;;;;;10386870;28;20233;-80
2023/04/17 11:55:17;;;;;;;7.20;6.60;;;14.70;99.90;;;;;;10404134;28;20219;-80
2023/04/17 12:00:26;;;;;;;7.00;6.40;;;14.80;99.90;;;;;;10406635;28;20201;-80
2023/04/17 12:05:30;;;;;;;7.90;7.27;;;14.80;99.90;;;;;;10386018;28;20549;-80
2023/04/17 12:10:43;;;;;;;7.17;6.57;;;14.70;99.90;;;;;;10403057;28;20229;-80
2023/04/17 12:15:45;;;;;;;7.27;6.67;;;14.40;99.90;;;;;;10349998;28;20237;-80
2023/04/17 12:20:49;;;;;;;7.00;6.43;;;14.20;99.90;;;;;;10360313;28;20241;-80
2023/04/17 12:25:51;;;;;;;6.10;5.63;;;14.00;99.90;;;;;;10365245;28;20210;-80
2023/04/17 12:30:53;;;;;;;7.33;6.73;;;13.90;99.90;;;;;;10404483;28;20218;-81
2023/04/17 12:35:57;;;;;;;6.40;5.90;;;13.90;99.90;;;;;;10423049;28;20278;-80
2023/04/17 12:40:59;;;;;;;7.70;7.00;;;13.80;99.90;;;;;;10423874;28;20586;-79
2023/04/17 12:46:01;;;;;;;8.60;7.90;;;13.90;99.90;;;;;;10403925;28;20194;-79
2023/04/17 12:51:05;;;;;;;7.13;6.53;;;14.00;99.90;;;;;;10406929;28;20656;-80
2023/04/17 12:56:08;;;;;;;8.40;7.70;;;14.10;99.90;;;;;;10424812;28;20721;-81
2023/04/17 13:01:10;;;;;;;7.20;6.60;;;14.30;99.90;;;;;;10348884;28;20219;-80
2023/04/17 13:06:14;;;;;;;8.27;7.57;;;14.20;99.90;;;;;;10420024;28;20677;-79
2023/04/17 13:11:16;;;;;;;8.20;7.47;;;14.30;99.90;;;;;;10400768;28;20233;-80
2023/04/17 13:16:19;;;;;;;7.50;7.00;;;14.30;99.90;;;;;;10418383;28;20322;-80
2023/04/17 13:21:22;;;;;;;7.30;6.70;;;14.10;99.90;;;;;;10402262;28;20595;-79
2023/04/17 13:26:24;;;;;;;6.40;5.90;;;14.00;99.90;;;;;;10384941;28;20202;-80
2023/04/17 13:31:27;;;;;;;7.07;6.50;;;13.80;99.90;;;;;;10420010;28;20227;-80
2023/04/17 13:36:31;;;;;;;8.07;7.47;;;13.70;99.90;;;;;;10420455;28;20682;-80
2023/04/17 13:41:33;;;;;;;7.83;7.20;;;13.70;99.90;;;;;;10421038;28;20238;-80
2023/04/17 13:46:35;;;;;;;6.87;6.43;;;13.80;99.90;;;;;;10423973;28;20260;-80
2023/04/17 13:51:39;;;;;;;6.40;6.00;;;13.90;99.90;;;;;;10409211;28;20226;-80
2023/04/17 13:56:41;;;;;;;7.43;6.93;;;14.10;99.90;;;;;;10429004;28;20240;-80
2023/04/17 14:01:43;;;;;;;6.73;6.23;;;14.10;99.90;;;;;;10394475;28;20705;-80
2023/04/17 14:06:49;;;;;;;7.00;6.50;;;14.00;99.90;;;;;;10410557;28;20613;-80
2023/04/17 14:11:53;;;;;;;7.00;6.50;;;13.90;99.90;;;;;;10416058;28;20253;-79
2023/04/17 14:16:59;;;;;;;6.80;6.30;;;13.80;99.90;;;;;;10417172;28;20269;-79
2023/04/17 14:22:03;;;;;;;7.30;6.70;;;13.80;99.90;;;;;;10423815;28;20219;-80
2023/04/17 14:27:05;;;;;;;6.50;6.10;;;13.70;99.90;;;;;;10422048;28;20199;-80
2023/04/17 14:32:07;;;;;;;8.40;7.70;;;13.70;99.90;;;;;;10416830;28;20244;-81
2023/04/17 14:37:10;;;;;;;7.73;7.13;;;13.60;99.90;;;;;;10399363;28;20195;-81
2023/04/17 14:42:12;;;;;;;7.70;7.00;;;13.60;99.90;;;;;;10416739;28;20697;-81
2023/04/17 14:47:15;;;;;;;5.80;5.30;;;13.70;99.90;;;;;;10433163;28;20195;-81
2023/04/17 14:52:18;;;;;;;7.37;6.77;;;13.90;99.90;;;;;;10400351;28;20230;-81
2023/04/17 14:57:20;;;;;;;8.13;7.43;;;13.90;99.90;;;;;;10438416;28;20277;-80
2023/04/17 15:02:22;;;;;;;6.80;6.30;;;13.90;99.90;;;;;;10431524;28;20316;-79
2023/04/17 15:07:26;;;;;;;7.40;6.80;;;13.90;99.90;;;;;;10429295;28;20191;-79
2023/04/17 15:12:28;;;;;;;7.57;6.93;;;14.00;99.90;;;;;;10426930;28;20225;-80
2023/04/17 15:17:30;;;;;;;7.43;6.87;;;14.00;99.90;;;;;;10408289;28;20198;-79
2023/04/17 15:22:35;;;;;;;7.70;7.10;;;14.00;99.90;;;;;;10408242;28;20305;-79
2023/04/17 15:27:37;;;;;;;7.10;6.60;;;14.10;99.90;;;;;;10422362;28;20190;-79
2023/04/17 15:32:40;;;;;;;7.50;6.93;;;14.20;99.90;;;;;;10426913;28;20329;-79
2023/04/17 15:37:43;;;;;;;8.60;7.97;;;14.20;99.90;;;;;;10407325;28;20197;-79
2023/04/17 15:42:45;;;;;;;8.37;7.60;;;14.20;99.90;;;;;;10424102;28;20219;-80
2023/04/17 15:47:48;;;;;;;7.47;6.87;;;14.10;99.90;;;;;;10427536;28;20205;-78
2023/04/17 15:52:51;;;;;;;6.60;6.00;;;14.00;99.90;;;;;;10412120;28;20215;-79
2023/04/17 15:57:53;;;;;;;7.13;6.43;;;13.90;99.90;;;;;;10410726;28;20268;-79
2023/04/17 16:02:55;;;;;;;7.20;6.70;;;13.90;99.90;;;;;;10410639;28;20214;-79
2023/04/17 16:08:00;;;;;;;7.53;6.97;;;13.80;99.90;;;;;;10428993;28;20241;-81
2023/04/17 16:13:02;;;;;;;6.30;5.80;;;13.80;99.90;;;;;;10411191;28;20279;-80
2023/04/17 16:18:06;;;;;;;6.30;5.83;;;13.70;99.90;;;;;;10423735;28;20604;-80
2023/04/17 16:23:09;;;;;;;7.13;6.63;;;13.60;99.90;;;;;;10383570;28;20214;-80
2023/04/17 16:28:11;;;;;;;6.13;5.70;;;13.60;99.90;;;;;;10399333;28;20232;-80
2023/04/17 16:33:13;;;;;;;6.90;6.30;;;13.50;99.90;;;;;;10393812;28;20272;-78
2023/04/17 16:38:17;;;;;;;5.80;5.30;;;13.50;99.90;;;;;;10416040;28;20191;-78
2023/04/17 16:43:19;;;;;;;5.60;5.20;;;13.50;99.90;;;;;;10417209;28;20214;-79
2023/04/17 16:48:21;;;;;;;5.77;5.37;;;13.40;99.90;;;;;;10416127;28;20231;-79
2023/04/17 16:53:24;;;;;;;5.93;5.43;;;13.30;99.90;;;;;;10415901;28;20558;-80
2023/04/17 16:58:26;;;;;;;5.80;5.40;;;13.30;99.90;;;;;;10381780;28;20305;-78
2023/04/17 17:03:30;;;;;;;5.80;5.40;;;13.20;99.90;;;;;;10395711;28;20694;-79
2023/04/17 17:08:33;;;;;;;6.10;5.60;;;13.10;99.90;;;;;;10411939;28;20206;-80
2023/04/17 17:13:35;;;;;;;6.27;5.70;;;13.10;99.90;;;;;;10415842;28;20762;-80
2023/04/17 17:18:37;;;;;;;6.47;5.87;;;13.00;99.90;;;;;;10414438;28;20222;-80
2023/04/17 17:23:41;;;;;;;5.27;4.87;;;12.90;99.90;;;;;;10377724;28;20635;-82
2023/04/17 17:28:49;;;;;;;5.60;5.10;;;12.90;99.90;;;;;;10402773;28;20260;-79
2023/04/17 17:33:53;;;;;;;5.40;4.90;;;12.80;99.90;;;;;;10404411;28;20233;-79
2023/04/17 17:38:57;;;;;;;6.00;5.50;;;12.80;99.90;;;;;;10362313;28;20194;-79
2023/04/17 17:44:01;;;;;;;5.07;4.77;;;12.80;99.90;;;;;;10372717;28;20306;-80
2023/04/17 17:49:05;;;;;;;4.80;4.50;;;12.70;99.90;;;;;;10395676;28;20282;-81
2023/04/17 17:54:09;;;;;;;5.90;5.07;;;12.70;99.90;;;;;;10374964;28;20293;-78
2023/04/17 17:59:12;;;;;;;4.60;4.30;;;12.70;99.90;;;;;;10387561;28;20198;-78
2023/04/17 18:04:16;;;;;;;4.33;4.03;;;12.60;99.90;;;;;;10395767;28;20301;-79
2023/04/17 18:09:19;;;;;;;4.40;4.10;;;12.60;99.90;;;;;;10414047;28;20234;-80
2023/04/17 18:14:21;;;;;;;4.30;3.90;;;12.50;99.90;;;;;;10432930;28;20681;-80
2023/04/17 18:19:24;;;;;;;3.73;3.53;;;12.50;99.90;;;;;;10424169;28;20598;-79
2023/04/17 18:24:27;;;;;;;3.90;3.70;;;12.50;99.90;;;;;;10417937;28;20657;-79
2023/04/17 18:29:30;;;;;;;4.00;3.80;;;12.50;99.90;;;;;;10374003;28;20659;-79
2023/04/17 18:34:32;;;;;;;4.57;4.30;;;12.50;99.90;;;;;;10404052;28;20626;-79
2023/04/17 18:39:35;;;;;;;4.77;4.47;;;12.50;99.90;;;;;;10407573;28;20235;-80
2023/04/17 18:44:37;;;;;;;4.33;4.03;;;12.40;99.90;;;;;;10414081;28;20292;-79
2023/04/17 18:49:39;;;;;;;4.20;3.93;;;12.40;99.90;;;;;;10425109;28;20202;-78
2023/04/17 18:54:43;;;;;;;3.47;3.27;;;12.40;99.90;;;;;;10399790;28;20215;-80
2023/04/17 18:59:45;;;;;;;4.00;3.70;;;12.30;99.90;;;;;;10433436;28;20221;-78
2023/04/17 19:04:47;;;;;;;3.83;3.53;;;12.40;99.90;;;;;;10409020;28;20210;-80
2023/04/17 19:09:50;;;;;;;3.70;3.50;;;12.30;99.90;;;;;;10423410;28;20233;-78
2023/04/17 19:14:55;;;;;;;4.10;3.90;;;12.30;99.90;;;;;;10402893;28;20222;-79
2023/04/17 19:19:57;;;;;;;3.93;3.73;;;12.20;99.90;;;;;;10401767;28;20597;-78
2023/04/17 19:25:01;;;;;;;5.43;3.90;;;12.20;99.90;;;;;;10402295;28;20214;-80
2023/04/17 19:30:03;;;;;;;5.10;4.80;;;12.20;99.90;;;;;;10428652;28;20199;-81
2023/04/17 19:35:07;;;;;;;4.60;4.30;;;12.20;99.90;;;;;;10418460;28;20225;-80
2023/04/17 19:40:12;;;;;;;4.80;4.50;;;12.10;99.90;;;;;;10384510;28;20554;-78
2023/04/17 19:45:16;;;;;;;5.13;4.73;;;12.10;99.90;;;;;;10428200;28;20566;-78
2023/04/17 19:50:18;;;;;;;5.47;4.97;;;12.00;99.90;;;;;;10414612;28;20206;-78
2023/04/17 19:55:21;;;;;;;5.60;5.30;;;11.90;99.90;;;;;;10400186;28;20222;-80
2023/04/17 20:00:23;;;;;;;6.30;5.80;;;11.80;99.90;;;;;;10433095;28;20392;-78
2023/04/17 20:05:26;;;;;;;5.70;5.20;;;11.80;99.90;;;;;;10413622;28;20194;-79
2023/04/17 20:10:29;;;;;;;6.23;5.80;;;11.80;99.90;;;;;;10445283;28;20318;-79
2023/04/17 20:15:35;;;;;;;6.67;6.27;;;11.80;99.90;;;;;;10412933;28;20309;-78
2023/04/17 20:20:37;;;;;;;8.63;6.43;;;11.80;99.90;;;;;;10412119;28;20587;-80
2023/04/17 20:25:41;;;;;;;6.87;6.33;;;11.70;99.90;;;;;;10385292;28;20214;-81
2023/04/17 20:30:43;;;;;;;8.20;7.60;;;11.60;99.90;;;;;;10374702;28;20246;-80
2023/04/17 20:35:45;;;;;;;8.53;7.83;;;11.50;99.90;;;;;;10380442;28;20214;-78
2023/04/17 20:40:49;;;;;;;10.53;9.73;;;11.50;99.90;;;;;;10399878;28;20219;-79
2023/04/17 20:45:51;;;;;;;9.63;8.93;;;11.40;99.90;;;;;;10403285;28;20222;-80
2023/04/17 20:50:53;;;;;;;10.67;9.77;;;11.40;99.90;;;;;;10410517;28;20250;-78
2023/04/17 20:55:56;;;;;;;14.53;13.13;;;11.30;99.90;;;;;;10400054;28;20210;-81
2023/04/17 21:00:58;;;;;;;14.20;12.93;;;11.30;99.90;;;;;;10387181;28;20580;-78
2023/04/17 21:06:00;;;;;;;13.50;12.40;;;11.30;99.90;;;;;;10386386;28;20244;-78
2023/04/17 21:11:04;;;;;;;14.47;13.27;;;11.30;99.90;;;;;;10446568;23;20265;-80
2023/04/17 21:16:10;;;;;;;18.73;17.03;;;11.30;99.90;;;;;;10437629;28;20222;-80
2023/04/17 21:21:12;;;;;;;14.93;13.73;;;11.30;99.90;;;;;;10437608;28;20448;-80
2023/04/17 21:26:17;;;;;;;16.07;14.40;;;11.20;99.90;;;;;;10453660;28;20544;-80
2023/04/17 21:31:19;;;;;;;15.73;14.40;;;11.30;99.90;;;;;;10442191;28;20317;-80
2023/04/17 21:36:22;;;;;;;14.10;12.90;;;11.30;99.90;;;;;;10418914;28;20218;-80
2023/04/17 21:41:25;;;;;;;14.60;13.40;;;11.30;99.90;;;;;;10452432;28;20221;-80
2023/04/17 21:46:28;;;;;;;13.60;12.40;;;11.30;99.90;;;;;;10431511;28;20194;-81
2023/04/17 21:51:30;;;;;;;15.23;13.73;;;11.30;99.90;;;;;;10423396;28;20656;-78
2023/04/17 21:56:33;;;;;;;13.83;12.60;;;11.30;99.90;;;;;;10451382;28;20300;-79
2023/04/17 22:01:35;;;;;;;14.60;13.30;;;11.30;99.90;;;;;;10443188;28;20709;-81
2023/04/17 22:06:37;;;;;;;16.47;14.83;;;11.30;99.90;;;;;;10449730;28;20571;-81
2023/04/17 22:11:41;;;;;;;15.67;14.30;;;11.30;99.90;;;;;;10449444;28;20221;-81
2023/04/17 22:16:43;;;;;;;20.77;18.77;;;11.30;99.90;;;;;;10457500;28;20222;-82
2023/04/17 22:21:45;;;;;;;18.60;17.00;;;11.30;99.90;;;;;;10442025;28;20217;-80
2023/04/17 22:26:49;;;;;;;17.63;16.13;;;11.20;99.90;;;;;;10450496;28;20210;-80
2023/04/17 22:31:51;;;;;;;19.67;17.87;;;11.20;99.90;;;;;;10453400;28;20216;-80
2023/04/17 22:36:53;;;;;;;17.87;16.37;;;11.20;99.90;;;;;;10454008;28;20212;-82
2023/04/17 22:41:56;;;;;;;19.90;18.10;;;11.10;99.90;;;;;;10449436;28;20238;-80
2023/04/17 22:46:58;;;;;;;20.20;18.33;;;11.10;99.90;;;;;;10427086;28;20244;-79
2023/04/17 22:52:01;;;;;;;19.90;18.03;;;11.10;99.90;;;;;;10466698;28;20210;-79
2023/04/17 22:57:04;;;;;;;19.50;17.40;;;11.10;99.90;;;;;;10445773;28;20214;-80
2023/04/17 23:02:06;;;;;;;19.93;17.93;;;11.10;99.90;;;;;;10431046;28;20618;-80
2023/04/17 23:07:08;;;;;;;21.23;19.00;;;11.10;99.90;;;;;;10458467;28;20208;-80
2023/04/17 23:12:12;;;;;;;21.97;19.90;;;11.10;99.90;;;;;;10442065;28;20234;-80
2023/04/17 23:17:14;;;;;;;20.00;18.30;;;11.10;99.90;;;;;;10427970;28;20267;-80
2023/04/17 23:22:16;;;;;;;21.07;19.00;;;11.10;99.90;;;;;;10431326;28;20213;-80
2023/04/17 23:27:20;;;;;;;20.37;18.67;;;11.20;99.90;;;;;;10446884;28;20200;-80
2023/04/17 23:32:22;;;;;;;21.27;19.27;;;11.20;99.90;;;;;;10450452;28;20210;-80
2023/04/17 23:37:24;;;;;;;22.97;20.53;;;11.20;99.90;;;;;;10445588;28;20263;-80
2023/04/17 23:42:28;;;;;;;21.30;19.07;;;11.20;99.90;;;;;;10454491;28;20700;-80
2023/04/17 23:47:30;;;;;;;20.93;19.03;;;11.20;99.90;;;;;;10454926;28;20265;-81
2023/04/17 23:52:32;;;;;;;23.23;21.13;;;11.20;99.90;;;;;;10467729;28;20217;-80
2023/04/17 23:57:36;;;;;;;20.53;18.63;;;11.20;99.90;;;;;;10460090;28;20721;-80
